Chambly, Canada
Current Conditions -  °F | °C
As of 5:00 PM on Tuesday 25 Nov 2014 (Local Time) from CYHU Reporting Station
Overcast Overcast  
Wind Chill: 32°   Ceiling: 3700
Heat Index: 43°   Visibility: 9mi
Dew Point: 30°   Wind: 29mph
Humidity: 61%   Direction: 240°WSW
Pressure: 29.86"   Gusts: 37mph
Location:  45.45°N, 73.3°W
Report Text: CYHU 252200Z AUTO 24025G32KT 9SM BKN037 BKN044 BKN055 OVC094 06/M01 A2986 RMK SLP112
Loading
Personal Weather Stations






























Interactive Weather Map New forecast layout! Learn more

10-Day Weather Forecast

Advertisements
Track Severe Weather on mobile